Time;durP1;ratioP1;P1;durP2;ratioP2;P2;SDS_P1;SDS_P2;PMS_P1;PMS_P2;Temp;Humidity;BMP_temperature;BMP_pressure;BME280_temperature;BME280_humidity;BME280_pressure;Samples;Min_cycle;Max_cycle;Signal;HPM_P1;HPM_P2
2022/09/15 00:01:34;;;;;;;16.55;10.23;;;16.90;78.90;;;;;;5095756;28;20023;-73
2022/09/15 00:04:00;;;;;;;11.98;8.30;;;17.00;79.00;;;;;;5077567;28;20371;-73
2022/09/15 00:06:26;;;;;;;13.48;8.80;;;16.90;79.00;;;;;;5095461;28;20023;-73
2022/09/15 00:08:53;;;;;;;13.25;8.60;;;17.00;79.20;;;;;;5097056;28;20016;-73
2022/09/15 00:11:25;;;;;;;15.30;8.95;;;17.00;79.20;;;;;;5078787;28;20456;-73
2022/09/15 00:13:52;;;;;;;12.75;8.05;;;17.00;79.40;;;;;;5045890;28;20060;-73
2022/09/15 00:16:20;;;;;;;14.63;8.82;;;17.00;79.30;;;;;;5086139;28;20110;-73
2022/09/15 00:18:46;;;;;;;14.05;8.85;;;17.00;79.40;;;;;;5096139;28;20052;-73
2022/09/15 00:21:16;;;;;;;14.60;9.50;;;17.00;79.40;;;;;;5084592;28;20036;-73
2022/09/15 00:23:42;;;;;;;13.27;8.55;;;17.10;79.60;;;;;;5078811;28;20035;-73
2022/09/15 00:26:10;;;;;;;14.57;9.13;;;17.00;79.50;;;;;;5079734;28;20020;-73
2022/09/15 00:28:36;;;;;;;15.23;9.00;;;17.10;79.60;;;;;;5096880;28;20089;-73
2022/09/15 00:31:06;;;;;;;12.95;9.43;;;17.10;79.70;;;;;;5093052;28;20433;-73
2022/09/15 00:33:32;;;;;;;15.35;9.68;;;17.00;79.70;;;;;;5078739;28;20039;-73
2022/09/15 00:36:02;;;;;;;15.50;9.82;;;17.10;79.80;;;;;;5078951;28;20144;-73
2022/09/15 00:38:28;;;;;;;16.92;9.35;;;17.10;79.80;;;;;;5078952;28;20039;-73
2022/09/15 00:40:56;;;;;;;13.73;9.65;;;17.00;79.80;;;;;;5079465;28;20028;-73
2022/09/15 00:43:41;;;;;;;15.05;9.70;;;17.10;80.00;;;;;;5097312;28;20440;-73
2022/09/15 00:46:08;;;;;;;16.50;9.77;;;17.10;80.10;;;;;;5079333;28;20353;-73
2022/09/15 00:48:34;;;;;;;13.93;9.32;;;17.10;80.20;;;;;;5078743;28;20326;-73
2022/09/15 00:51:03;;;;;;;13.82;9.45;;;17.10;80.20;;;;;;5092246;28;20326;-73
2022/09/15 00:53:30;;;;;;;14.15;9.27;;;17.10;80.30;;;;;;5096920;28;20051;-73
2022/09/15 00:55:58;;;;;;;15.23;9.80;;;17.10;80.90;;;;;;5078967;28;20445;-73
2022/09/15 00:58:33;;;;;;;13.70;9.43;;;17.10;80.40;;;;;;5076535;28;20040;-73
2022/09/15 01:01:01;;;;;;;14.75;9.18;;;17.10;80.40;;;;;;5086809;28;20041;-73
2022/09/15 01:03:30;;;;;;;16.15;10.50;;;17.10;80.40;;;;;;5089095;28;20076;-73
2022/09/15 01:06:02;;;;;;;15.43;9.75;;;17.10;80.50;;;;;;5093559;28;20024;-73
2022/09/15 01:08:56;;;;;;;13.90;9.68;;;17.10;80.50;;;;;;5078983;28;20028;-73
2022/09/15 01:11:22;;;;;;;15.45;9.52;;;17.10;80.40;;;;;;5068579;28;20428;-73
2022/09/15 01:13:48;;;;;;;14.55;9.15;;;17.10;80.50;;;;;;5078160;28;20101;-73
2022/09/15 01:16:36;;;;;;;16.33;10.25;;;17.10;80.40;;;;;;5071683;28;20373;-73
2022/09/15 01:19:40;;;;;;;14.02;8.90;;;17.10;80.50;;;;;;5077070;28;20143;-73
2022/09/15 01:22:16;;;;;;;13.02;8.07;;;17.20;80.50;;;;;;5058082;28;20419;-73
2022/09/15 01:24:41;;;;;;;11.98;8.27;;;17.10;80.40;;;;;;5078204;28;20039;-73
2022/09/15 01:27:32;;;;;;;13.65;8.98;;;17.10;80.40;;;;;;5077140;28;20027;-73
2022/09/15 01:30:11;;;;;;;13.55;8.57;;;17.20;80.40;;;;;;5076613;28;20357;-73
2022/09/15 01:33:11;;;;;;;11.65;7.95;;;17.10;80.40;;;;;;5060191;28;20055;-73
2022/09/15 01:35:52;;;;;;;15.43;8.63;;;17.10;80.40;;;;;;5091474;28;20036;-73
2022/09/15 01:38:29;;;;;;;18.27;9.38;;;17.10;80.30;;;;;;5077740;28;20421;-73
2022/09/15 01:41:16;;;;;;;12.88;8.63;;;17.10;80.40;;;;;;5092480;28;20068;-73
2022/09/15 01:43:55;;;;;;;14.80;8.30;;;17.10;80.40;;;;;;5069552;28;20117;-72
2022/09/15 01:46:24;;;;;;;13.93;9.20;;;17.10;80.40;;;;;;5087208;28;20036;-73
2022/09/15 01:48:52;;;;;;;13.65;9.20;;;17.10;80.50;;;;;;5064030;28;20024;-73
2022/09/15 01:51:18;;;;;;;13.82;9.13;;;17.10;80.50;;;;;;5080149;28;20109;-73
2022/09/15 01:53:45;;;;;;;12.90;8.52;;;17.10;80.50;;;;;;5056259;28;20453;-73
2022/09/15 01:56:11;;;;;;;14.77;9.38;;;17.10;80.60;;;;;;5079178;28;20522;-73
2022/09/15 01:58:39;;;;;;;14.90;9.13;;;17.10;80.60;;;;;;5085677;28;20027;-73
2022/09/15 02:01:32;;;;;;;14.65;8.70;;;17.10;80.60;;;;;;5089836;28;20068;-72
2022/09/15 02:04:07;;;;;;;14.07;8.80;;;17.10;81.20;;;;;;5090306;28;20463;-72
2022/09/15 02:06:57;;;;;;;13.93;8.80;;;17.10;80.70;;;;;;5074231;28;20028;-72
2022/09/15 02:09:33;;;;;;;13.90;8.45;;;17.10;80.70;;;;;;5088450;28;20027;-72
2022/09/15 02:12:11;;;;;;;12.68;8.50;;;17.10;80.70;;;;;;5069667;28;20032;-72
2022/09/15 02:14:50;;;;;;;13.40;7.95;;;17.10;80.70;;;;;;5089055;28;20036;-72
2022/09/15 02:17:19;;;;;;;13.55;8.98;;;17.10;80.80;;;;;;5091278;28;20039;-72
2022/09/15 02:19:51;;;;;;;14.32;7.88;;;17.10;80.80;;;;;;5066376;28;20090;-71
2022/09/15 02:22:26;;;;;;;16.52;8.93;;;17.10;80.80;;;;;;5081660;28;20456;-72
2022/09/15 02:25:01;;;;;;;12.50;8.18;;;17.10;80.80;;;;;;5071168;28;20024;-72
2022/09/15 02:27:31;;;;;;;14.98;8.40;;;17.10;80.70;;;;;;5090856;28;20089;-72
2022/09/15 02:30:04;;;;;;;13.38;8.57;;;17.10;80.70;;;;;;5073122;28;20143;-72
2022/09/15 02:32:32;;;;;;;12.80;8.43;;;17.10;80.60;;;;;;5090077;28;20101;-72
2022/09/15 02:35:03;;;;;;;13.07;8.38;;;17.10;80.60;;;;;;5083760;28;20035;-72
2022/09/15 02:37:29;;;;;;;13.02;8.70;;;17.00;80.50;;;;;;5070781;28;20034;-72
2022/09/15 02:39:56;;;;;;;15.45;8.55;;;17.00;80.40;;;;;;5073531;28;20032;-73
2022/09/15 02:42:30;;;;;;;14.70;8.07;;;17.00;80.30;;;;;;5094578;28;20028;-72
2022/09/15 02:44:56;;;;;;;12.77;7.28;;;17.00;80.20;;;;;;5094649;28;20069;-72
2022/09/15 02:47:23;;;;;;;9.95;6.53;;;16.90;80.20;;;;;;5090579;28;20028;-72
2022/09/15 02:49:48;;;;;;;11.68;6.40;;;16.90;80.00;;;;;;5072021;28;20028;-72
2022/09/15 02:52:14;;;;;;;11.65;6.40;;;16.90;79.90;;;;;;5068560;28;20386;-62
2022/09/15 02:54:40;;;;;;;9.00;6.22;;;16.90;79.80;;;;;;5059493;28;20089;-72
2022/09/15 02:57:06;;;;;;;9.75;6.10;;;16.90;79.70;;;;;;5074049;28;20032;-72
2022/09/15 03:02:18;;;;;;;11.82;6.18;;;16.90;79.60;;;;;;5062301;28;20040;-72
2022/09/15 03:04:48;;;;;;;10.57;6.22;;;16.90;79.40;;;;;;5093002;28;20028;-72
2022/09/15 03:07:15;;;;;;;11.07;6.10;;;16.80;79.30;;;;;;5084648;28;20094;-72
2022/09/15 03:09:40;;;;;;;9.95;5.90;;;16.80;79.30;;;;;;5074741;28;20093;-72
2022/09/15 03:12:06;;;;;;;10.27;5.72;;;16.80;79.20;;;;;;5088797;28;20024;-72
2022/09/15 03:14:32;;;;;;;10.88;5.32;;;16.80;79.10;;;;;;5055229;28;20051;-72
2022/09/15 03:16:58;;;;;;;10.27;5.45;;;16.80;79.10;;;;;;5074485;28;20127;-72
2022/09/15 03:19:25;;;;;;;9.60;4.90;;;16.80;79.10;;;;;;5069101;28;20049;-72
2022/09/15 03:21:51;;;;;;;10.10;5.20;;;16.80;79.00;;;;;;5087612;28;20514;-72
2022/09/15 03:24:18;;;;;;;8.25;4.78;;;16.80;78.90;;;;;;5072954;28;20024;-73
2022/09/15 03:26:45;;;;;;;11.13;5.40;;;16.80;78.80;;;;;;5074596;28;20039;-72
2022/09/15 03:29:11;;;;;;;8.48;4.80;;;16.80;78.80;;;;;;5058387;28;20348;-72
2022/09/15 03:31:36;;;;;;;9.93;4.80;;;16.80;78.70;;;;;;5086020;28;20119;-72
2022/09/15 03:34:02;;;;;;;7.80;4.95;;;16.80;78.60;;;;;;5064937;28;20116;-72
2022/09/15 03:36:28;;;;;;;8.65;4.43;;;16.80;78.60;;;;;;5090777;28;20029;-72
2022/09/15 03:38:56;;;;;;;9.35;4.78;;;16.80;78.50;;;;;;5090773;28;20028;-72
2022/09/15 03:41:23;;;;;;;7.93;4.55;;;16.80;78.50;;;;;;5083751;28;20092;-72
2022/09/15 03:43:48;;;;;;;8.63;4.68;;;16.80;78.50;;;;;;5075576;28;20032;-72
2022/09/15 03:46:14;;;;;;;9.18;4.60;;;16.70;78.40;;;;;;5084625;28;20126;-72
2022/09/15 03:48:40;;;;;;;8.05;4.22;;;16.70;78.50;;;;;;5084301;28;20380;-72
2022/09/15 03:51:07;;;;;;;8.13;4.95;;;16.70;78.40;;;;;;5082950;28;20020;-72
2022/09/15 03:53:36;;;;;;;8.90;5.05;;;16.70;78.40;;;;;;5060499;28;20346;-72
2022/09/15 03:56:18;;;;;;;11.90;5.47;;;16.80;78.50;;;;;;5073007;28;20052;-72
2022/09/15 03:58:43;;;;;;;9.73;4.90;;;16.80;78.50;;;;;;5072175;28;20028;-72
2022/09/15 04:01:09;;;;;;;7.35;4.32;;;16.80;78.80;;;;;;5078058;28;20051;-72
2022/09/15 04:03:35;;;;;;;8.68;4.72;;;16.80;78.50;;;;;;5080861;28;20032;-72
2022/09/15 04:06:00;;;;;;;8.38;4.75;;;16.80;78.50;;;;;;5070368;28;20036;-72
2022/09/15 04:08:26;;;;;;;9.20;5.32;;;16.80;78.50;;;;;;5087046;28;20024;-72
2022/09/15 04:10:53;;;;;;;8.98;4.95;;;16.80;78.40;;;;;;5071585;28;20032;-72
2022/09/15 04:13:19;;;;;;;10.57;4.78;;;16.80;78.40;;;;;;5072419;28;20032;-72
2022/09/15 04:15:45;;;;;;;9.60;5.05;;;16.80;78.40;;;;;;5072075;28;20028;-71
2022/09/15 04:18:10;;;;;;;8.60;4.05;;;16.80;78.40;;;;;;5083303;28;20040;-72
2022/09/15 04:20:38;;;;;;;8.23;4.10;;;16.80;78.40;;;;;;5063081;28;20060;-72
2022/09/15 04:23:04;;;;;;;9.75;4.78;;;16.80;78.40;;;;;;5077007;28;20028;-72
2022/09/15 04:25:30;;;;;;;9.32;4.40;;;16.80;78.40;;;;;;5073839;28;20032;-72
2022/09/15 04:27:56;;;;;;;9.20;4.93;;;16.80;78.40;;;;;;5082422;28;20287;-72
2022/09/15 04:30:22;;;;;;;8.45;4.55;;;16.80;78.40;;;;;;5086460;28;20121;-72
2022/09/15 04:32:48;;;;;;;8.35;4.20;;;16.80;78.40;;;;;;5058070;28;20028;-72
2022/09/15 04:35:15;;;;;;;8.13;4.10;;;16.80;78.40;;;;;;5060488;28;20403;-72
2022/09/15 04:37:41;;;;;;;8.40;4.57;;;16.80;78.40;;;;;;5061422;28;20036;-72
2022/09/15 04:40:09;;;;;;;11.40;4.85;;;16.80;78.40;;;;;;5095988;28;20023;-72
2022/09/15 04:42:35;;;;;;;8.70;4.35;;;16.80;78.30;;;;;;5096510;28;20408;-72
2022/09/15 04:45:01;;;;;;;7.65;4.40;;;16.80;78.30;;;;;;5086818;28;20081;-72
2022/09/15 04:47:27;;;;;;;9.60;4.95;;;16.80;78.30;;;;;;5093552;28;20399;-72
2022/09/15 04:49:52;;;;;;;10.70;4.18;;;16.80;78.30;;;;;;5078661;28;20039;-72
2022/09/15 04:52:18;;;;;;;8.60;4.43;;;16.80;78.30;;;;;;5078979;28;20024;-72
2022/09/15 04:54:44;;;;;;;10.23;4.35;;;16.80;78.30;;;;;;5083723;28;20102;-72
2022/09/15 04:57:10;;;;;;;9.15;4.35;;;16.80;78.30;;;;;;5078146;28;20028;-72
2022/09/15 04:59:35;;;;;;;8.70;4.50;;;16.80;78.30;;;;;;5096602;28;20028;-72
2022/09/15 05:02:02;;;;;;;9.48;4.00;;;16.80;78.30;;;;;;5078150;28;20342;-72
2022/09/15 05:04:27;;;;;;;10.95;4.50;;;16.80;78.30;;;;;;5059507;28;20024;-72
2022/09/15 05:06:53;;;;;;;6.88;3.70;;;16.80;78.30;;;;;;5093230;28;20031;-72
2022/09/15 05:09:19;;;;;;;7.55;3.47;;;16.80;78.20;;;;;;5060530;28;20456;-73
2022/09/15 05:11:45;;;;;;;8.30;3.72;;;16.80;78.20;;;;;;5086290;28;20031;-73
2022/09/15 05:14:10;;;;;;;7.28;3.22;;;16.80;78.10;;;;;;5078042;28;20044;-73
2022/09/15 05:16:36;;;;;;;7.20;3.33;;;16.80;78.00;;;;;;5075073;28;20063;-72
2022/09/15 05:19:03;;;;;;;7.70;4.00;;;16.80;78.00;;;;;;5092620;28;20070;-72
2022/09/15 05:21:29;;;;;;;7.15;3.75;;;16.80;78.00;;;;;;5088532;28;20123;-73
2022/09/15 05:23:55;;;;;;;7.78;3.90;;;16.80;77.90;;;;;;5092085;28;20050;-72
2022/09/15 05:26:24;;;;;;;10.52;3.78;;;16.80;78.50;;;;;;5087754;28;20032;-73
2022/09/15 05:28:50;;;;;;;9.57;3.80;;;16.80;77.80;;;;;;5088131;28;20031;-72
2022/09/15 05:31:21;;;;;;;7.43;3.45;;;16.80;77.90;;;;;;5068867;28;20353;-72
2022/09/15 05:33:47;;;;;;;;;;;16.80;77.80;;;;;;5093342;28;20449;-72
2022/09/15 05:36:14;;;;;;;7.50;3.45;;;16.80;77.80;;;;;;5060614;28;19939;-73
2022/09/15 05:38:40;;;;;;;8.35;3.00;;;16.80;77.70;;;;;;5082570;28;20039;-72
2022/09/15 05:41:09;;;;;;;6.28;2.80;;;16.80;77.60;;;;;;5068043;28;20078;-72
2022/09/15 05:43:35;;;;;;;7.18;3.15;;;16.80;77.50;;;;;;5071844;28;20024;-73
2022/09/15 05:46:02;;;;;;;5.55;2.58;;;16.80;77.30;;;;;;5093385;28;20020;-72
2022/09/15 05:48:29;;;;;;;6.88;2.80;;;16.80;77.30;;;;;;5094606;28;20031;-72
2022/09/15 05:50:55;;;;;;;7.75;2.67;;;16.80;77.10;;;;;;5086899;28;20028;-72
2022/09/15 05:53:23;;;;;;;6.25;2.65;;;16.80;77.10;;;;;;5094010;28;20031;-73
2022/09/15 05:55:52;;;;;;;8.18;2.80;;;16.80;76.90;;;;;;5092932;28;20059;-72
2022/09/15 05:58:18;;;;;;;7.07;2.83;;;16.80;76.80;;;;;;5082305;28;20103;-72
2022/09/15 06:00:44;;;;;;;6.35;2.80;;;16.90;76.80;;;;;;5054610;28;20062;-71
2022/09/15 06:03:14;;;;;;;7.40;3.00;;;16.90;76.70;;;;;;5070288;28;20028;-72
2022/09/15 06:05:40;;;;;;;11.35;3.38;;;16.90;76.60;;;;;;5059547;28;20111;-73
2022/09/15 06:08:05;;;;;;;7.38;3.08;;;16.90;76.40;;;;;;5090949;28;20123;-74
2022/09/15 06:10:31;;;;;;;8.77;3.17;;;16.90;76.40;;;;;;5076417;28;20085;-72
2022/09/15 06:12:57;;;;;;;8.82;3.50;;;17.00;76.30;;;;;;5089559;28;20053;-73
2022/09/15 06:15:23;;;;;;;8.25;2.90;;;17.00;76.30;;;;;;5082729;28;20440;-73
2022/09/15 06:17:50;;;;;;;7.57;3.28;;;17.00;76.20;;;;;;5077188;28;20032;-73
2022/09/15 06:20:17;;;;;;;12.13;3.20;;;17.00;76.10;;;;;;5081434;28;20028;-73
2022/09/15 06:22:44;;;;;;;10.40;2.92;;;17.00;75.90;;;;;;5066351;28;20047;-73
2022/09/15 06:25:10;;;;;;;7.20;3.13;;;17.00;75.80;;;;;;5058437;28;20436;-74
2022/09/15 06:27:36;;;;;;;8.15;3.35;;;17.10;75.80;;;;;;5087055;28;20039;-73
2022/09/15 06:30:02;;;;;;;8.23;2.72;;;17.10;75.80;;;;;;5056677;28;20029;-73
2022/09/15 06:32:28;;;;;;;9.13;3.42;;;17.10;75.80;;;;;;5082960;28;20084;-74
2022/09/15 06:34:53;;;;;;;7.63;3.35;;;17.20;75.60;;;;;;5089779;28;20115;-73
2022/09/15 06:37:19;;;;;;;7.78;2.95;;;17.30;75.50;;;;;;5054485;28;20040;-72
2022/09/15 06:39:45;;;;;;;7.55;3.05;;;17.30;75.30;;;;;;5081082;28;20043;-71
2022/09/15 06:42:10;;;;;;;6.88;2.78;;;17.30;75.10;;;;;;5074863;28;20040;-72
2022/09/15 06:44:40;;;;;;;7.32;2.50;;;17.40;74.90;;;;;;5057383;28;20487;-73
2022/09/15 06:47:06;;;;;;;6.68;2.70;;;17.50;74.80;;;;;;5072949;28;20028;-72
2022/09/15 06:49:31;;;;;;;8.98;3.00;;;17.50;74.60;;;;;;5090006;28;20441;-72
2022/09/15 06:51:57;;;;;;;9.75;2.70;;;17.50;74.60;;;;;;5091415;28;20078;-72
2022/09/15 06:54:23;;;;;;;8.38;3.05;;;17.50;74.60;;;;;;5087996;28;20032;-72
2022/09/15 06:56:49;;;;;;;7.95;2.97;;;17.50;74.50;;;;;;5068715;28;20058;-72
2022/09/15 06:59:15;;;;;;;7.78;3.17;;;17.50;74.50;;;;;;5090145;28;20020;-73
2022/09/15 07:01:42;;;;;;;8.07;2.95;;;17.50;74.50;;;;;;5076513;28;20030;-72
2022/09/15 07:04:08;;;;;;;6.65;2.55;;;17.50;74.60;;;;;;5070536;28;20023;-72
2022/09/15 07:06:36;;;;;;;5.93;2.75;;;17.50;74.60;;;;;;5068073;28;20133;-73
2022/09/15 07:09:03;;;;;;;6.00;2.72;;;17.50;74.60;;;;;;5088126;28;20024;-72
2022/09/15 07:11:29;;;;;;;7.38;2.40;;;17.50;74.50;;;;;;5094612;28;20043;-73
2022/09/15 07:13:55;;;;;;;6.75;2.40;;;17.60;74.50;;;;;;5089979;28;20068;-73
2022/09/15 07:16:24;;;;;;;7.80;2.63;;;17.60;74.20;;;;;;5075484;28;20058;-73
2022/09/15 07:18:50;;;;;;;7.70;2.42;;;17.70;74.10;;;;;;5057739;28;20434;-73
2022/09/15 07:21:18;;;;;;;7.50;2.28;;;17.70;73.80;;;;;;5093553;28;20024;-73
2022/09/15 07:23:45;;;;;;;6.78;2.33;;;17.70;73.70;;;;;;5072000;28;20047;-73
2022/09/15 07:26:19;;;;;;;8.27;2.20;;;17.80;73.60;;;;;;5093063;28;20465;-73
2022/09/15 07:28:53;;;;;;;6.28;2.20;;;17.80;73.50;;;;;;5071388;28;20051;-73
2022/09/15 07:31:21;;;;;;;7.85;2.10;;;17.80;73.40;;;;;;5076739;28;20095;-73
2022/09/15 07:33:47;;;;;;;6.45;2.17;;;17.80;73.20;;;;;;5064434;28;20024;-73
2022/09/15 07:36:13;;;;;;;5.60;1.70;;;17.90;73.10;;;;;;5065195;28;20035;-73
2022/09/15 07:38:42;;;;;;;5.75;1.77;;;17.90;72.90;;;;;;5071130;28;20024;-73
2022/09/15 07:41:11;;;;;;;7.57;1.80;;;17.90;72.70;;;;;;5091425;28;20032;-73
2022/09/15 07:43:37;;;;;;;8.55;1.98;;;18.00;72.40;;;;;;5062800;28;20036;-73
2022/09/15 07:46:04;;;;;;;4.53;1.55;;;18.00;72.20;;;;;;5086709;28;20460;-73
2022/09/15 07:48:30;;;;;;;7.20;2.20;;;18.00;71.80;;;;;;5088954;28;20349;-73
2022/09/15 07:50:58;;;;;;;6.25;1.60;;;18.00;71.40;;;;;;5076836;28;20024;-73
2022/09/15 07:53:26;;;;;;;6.05;1.77;;;18.10;71.20;;;;;;5068433;28;20046;-73
2022/09/15 07:55:53;;;;;;;6.97;1.95;;;18.20;70.70;;;;;;5093371;28;20032;-73
2022/09/15 07:58:19;;;;;;;6.38;1.42;;;18.40;70.30;;;;;;5057819;28;20107;-72
2022/09/15 08:00:46;;;;;;;5.80;1.40;;;18.40;69.90;;;;;;5095351;28;20110;-72
2022/09/15 08:03:12;;;;;;;5.55;1.40;;;18.40;69.50;;;;;;5096825;28;20032;-73
2022/09/15 08:05:37;;;;;;;5.30;1.30;;;18.40;69.30;;;;;;5074614;28;20339;-72
2022/09/15 08:08:04;;;;;;;6.65;1.38;;;18.50;69.20;;;;;;5089200;28;20082;-72
2022/09/15 08:10:31;;;;;;;6.57;1.58;;;18.40;69.10;;;;;;5080427;28;20036;-72
2022/09/15 08:12:59;;;;;;;6.95;1.67;;;18.40;69.10;;;;;;5079104;28;20074;-72
2022/09/15 08:15:26;;;;;;;4.13;1.50;;;18.30;69.00;;;;;;5094371;28;20034;-71
2022/09/15 08:17:52;;;;;;;5.82;1.55;;;18.30;69.10;;;;;;5097222;28;20517;-72
2022/09/15 08:20:18;;;;;;;7.18;1.75;;;18.30;69.20;;;;;;5078980;28;20031;-72
2022/09/15 08:22:45;;;;;;;6.40;1.80;;;18.30;69.30;;;;;;5080058;28;20032;-72
2022/09/15 08:25:13;;;;;;;8.95;1.67;;;18.30;69.30;;;;;;5084319;28;20036;-72
2022/09/15 08:27:39;;;;;;;6.80;1.70;;;18.30;69.20;;;;;;5074488;28;20067;-72
2022/09/15 08:30:06;;;;;;;15.25;3.10;;;18.30;69.20;;;;;;5088490;28;20459;-72
2022/09/15 08:32:32;;;;;;;8.75;2.10;;;18.30;69.20;;;;;;5079994;28;20032;-72
2022/09/15 08:34:58;;;;;;;7.32;2.08;;;18.30;69.30;;;;;;5095478;28;20376;-72
2022/09/15 08:37:23;;;;;;;5.57;2.20;;;18.30;69.40;;;;;;5092449;28;20024;-72
2022/09/15 08:39:50;;;;;;;9.00;2.38;;;18.30;69.50;;;;;;5071997;28;20123;-72
2022/09/15 08:42:18;;;;;;;6.78;2.22;;;18.40;69.50;;;;;;5095752;28;20042;-72
2022/09/15 08:45:01;;;;;;;7.55;2.42;;;18.40;69.40;;;;;;5095772;28;20035;-72
2022/09/15 08:47:36;;;;;;;7.28;1.92;;;18.50;69.30;;;;;;5094361;28;20107;-71
2022/09/15 08:50:28;;;;;;;7.57;2.78;;;18.50;69.30;;;;;;5085742;28;20039;-72
2022/09/15 08:53:02;;;;;;;6.45;1.92;;;18.60;69.10;;;;;;5097487;28;20036;-72
2022/09/15 08:56:03;;;;;;;7.00;1.67;;;18.60;68.80;;;;;;5089965;28;20307;-71
2022/09/15 08:58:33;;;;;;;5.07;1.83;;;18.60;68.60;;;;;;5080331;28;20052;-71
2022/09/15 09:01:42;;;;;;;3.95;1.30;;;18.60;68.70;;;;;;5071916;28;20036;-72
2022/09/15 09:04:27;;;;;;;7.88;2.03;;;18.60;68.40;;;;;;5034543;28;20037;-72
2022/09/15 09:07:12;;;;;;;4.50;1.30;;;18.70;68.20;;;;;;5035274;28;20137;-72
2022/09/15 09:09:44;;;;;;;7.30;1.55;;;18.70;67.90;;;;;;5034772;28;20044;-72
2022/09/15 09:12:40;;;;;;;6.97;1.52;;;18.80;67.80;;;;;;5035144;28;20030;-72
2022/09/15 09:15:14;;;;;;;2.78;1.02;;;18.90;67.20;;;;;;5035330;28;20125;-71
2022/09/15 09:17:43;;;;;;;5.70;1.52;;;18.90;66.80;;;;;;5033176;28;20136;-71
2022/09/15 09:20:18;;;;;;;6.55;1.65;;;19.00;66.50;;;;;;5034263;28;20037;-71
2022/09/15 09:22:46;;;;;;;4.38;1.20;;;19.00;65.70;;;;;;5018471;28;20037;-71
2022/09/15 09:25:18;;;;;;;5.85;0.95;;;19.10;65.50;;;;;;5034065;28;20076;-71
2022/09/15 09:27:44;;;;;;;3.42;1.02;;;19.10;65.00;;;;;;5009179;28;20041;-71
2022/09/15 09:30:17;;;;;;;3.58;1.20;;;19.20;64.80;;;;;;5017555;28;20427;-71
2022/09/15 09:32:53;;;;;;;5.03;1.27;;;19.20;64.70;;;;;;5034990;28;20040;-71
2022/09/15 09:35:21;;;;;;;3.78;1.15;;;19.20;64.60;;;;;;5016104;28;20139;-71
2022/09/15 09:37:49;;;;;;;2.92;0.82;;;19.20;64.50;;;;;;5029732;28;20124;-74
2022/09/15 09:40:15;;;;;;;3.95;1.00;;;19.30;64.30;;;;;;5043170;28;20035;-71
2022/09/15 09:42:42;;;;;;;3.38;1.10;;;19.30;64.10;;;;;;5072052;28;20458;-71
2022/09/15 09:45:12;;;;;;;3.75;1.17;;;19.30;64.00;;;;;;5066591;28;20031;-71
2022/09/15 09:47:39;;;;;;;3.05;1.00;;;19.30;63.80;;;;;;5060060;28;20390;-71
2022/09/15 09:50:32;;;;;;;5.07;1.33;;;19.40;63.70;;;;;;5051461;28;20508;-71
2022/09/15 09:52:58;;;;;;;6.40;1.10;;;19.40;63.40;;;;;;5096107;28;20368;-71
2022/09/15 09:55:26;;;;;;;3.13;0.98;;;19.40;63.60;;;;;;5076195;28;20024;-71
2022/09/15 09:57:52;;;;;;;1.80;0.80;;;19.30;63.20;;;;;;5077641;28;20522;-71
2022/09/15 10:00:33;;;;;;;4.38;1.02;;;19.30;63.10;;;;;;5093944;28;20421;-70
2022/09/15 10:03:11;;;;;;;5.18;1.17;;;19.40;62.90;;;;;;5077799;28;20444;-71
2022/09/15 10:05:37;;;;;;;3.58;1.15;;;19.40;62.80;;;;;;5095445;28;20070;-70
2022/09/15 10:08:03;;;;;;;3.05;1.20;;;19.40;62.90;;;;;;5053510;28;20036;-70
2022/09/15 10:10:31;;;;;;;5.00;1.30;;;19.30;62.80;;;;;;5078909;28;20036;-70
2022/09/15 10:13:00;;;;;;;3.20;1.23;;;19.40;62.90;;;;;;5060419;28;20023;-70
2022/09/15 10:15:28;;;;;;;5.93;1.23;;;19.40;62.70;;;;;;5074340;28;20040;-70
2022/09/15 10:17:55;;;;;;;5.07;1.13;;;19.50;62.70;;;;;;5066910;28;20024;-69
2022/09/15 10:20:31;;;;;;;5.03;1.38;;;19.50;62.50;;;;;;5091177;28;20063;-70
2022/09/15 10:23:16;;;;;;;5.18;1.40;;;19.40;62.30;;;;;;5075932;28;20028;-69
2022/09/15 10:25:42;;;;;;;5.50;1.45;;;19.40;62.40;;;;;;5088894;28;20033;-71
2022/09/15 10:28:07;;;;;;;4.88;1.30;;;19.30;62.50;;;;;;5094752;28;20513;-71
2022/09/15 10:30:33;;;;;;;4.40;1.30;;;19.20;62.60;;;;;;5089826;28;20024;-71
2022/09/15 10:33:23;;;;;;;5.68;1.25;;;19.20;62.80;;;;;;5093297;28;20157;-70
2022/09/15 10:35:49;;;;;;;3.78;1.30;;;19.10;63.10;;;;;;5077371;28;20028;-70
2022/09/15 10:38:30;;;;;;;6.40;1.23;;;19.10;63.40;;;;;;5076770;28;20024;-71
2022/09/15 10:41:02;;;;;;;5.55;1.40;;;19.10;63.80;;;;;;5087551;28;20445;-71
2022/09/15 10:44:05;;;;;;;5.00;1.00;;;18.90;64.30;;;;;;5095102;28;20028;-71
2022/09/15 10:46:37;;;;;;;5.05;1.30;;;18.80;65.00;;;;;;5058724;28;20366;-70
2022/09/15 10:49:23;;;;;;;3.60;1.30;;;18.70;65.40;;;;;;5089878;28;20048;-70
2022/09/15 10:52:13;;;;;;;4.28;1.30;;;18.60;66.40;;;;;;5093021;28;20024;-70
2022/09/15 10:55:01;;;;;;;4.10;1.10;;;18.60;65.80;;;;;;5076770;28;20038;-70
2022/09/15 10:57:36;;;;;;;7.05;0.95;;;18.60;65.70;;;;;;5058776;28;20089;-70
2022/09/15 11:14:34;;;;;;;5.22;1.23;;;18.70;64.10;;;;;;5170986;27;20449;-63
2022/09/15 11:17:37;;;;;;;4.43;1.40;;;19.70;62.00;;;;;;5151896;27;20023;-63
2022/09/15 11:20:38;;;;;;;3.90;1.13;;;19.60;62.10;;;;;;5147749;27;20107;-63
2022/09/15 11:23:31;;;;;;;4.50;1.00;;;19.60;62.10;;;;;;5152164;27;20037;-64
2022/09/15 11:26:10;;;;;;;4.15;1.17;;;19.50;62.40;;;;;;5148290;27;20050;-64
2022/09/15 11:28:55;;;;;;;4.30;1.02;;;19.60;62.30;;;;;;5152266;27;20031;-63
2022/09/15 11:31:30;;;;;;;5.03;1.23;;;19.50;62.00;;;;;;5152441;27;20038;-63
2022/09/15 11:34:05;;;;;;;3.70;1.10;;;19.50;61.90;;;;;;5152577;27;20480;-63
2022/09/15 11:36:50;;;;;;;4.50;1.10;;;19.50;61.90;;;;;;5133739;27;20036;-64
2022/09/15 11:39:34;;;;;;;5.25;1.20;;;19.50;61.80;;;;;;5168129;27;20019;-63
2022/09/15 11:42:12;;;;;;;5.35;1.45;;;19.50;61.70;;;;;;5151431;27;20491;-64
2022/09/15 11:44:44;;;;;;;8.40;1.55;;;19.60;61.80;;;;;;5141750;27;20354;-64
2022/09/15 11:47:19;;;;;;;7.25;1.27;;;19.70;61.60;;;;;;5131546;27;20113;-64
2022/09/15 11:50:09;;;;;;;6.38;1.60;;;19.70;61.30;;;;;;5160564;27;20031;-64
2022/09/15 11:52:59;;;;;;;5.27;1.53;;;19.80;61.30;;;;;;5147314;27;20136;-64
2022/09/15 11:55:46;;;;;;;5.50;1.15;;;19.80;61.00;;;;;;5150172;27;20027;-64
2022/09/15 11:58:35;;;;;;;5.07;1.60;;;20.00;60.70;;;;;;5145691;27;20443;-64
2022/09/15 12:01:11;;;;;;;4.07;1.13;;;20.10;60.50;;;;;;5147806;27;20058;-64
2022/09/15 12:03:54;;;;;;;3.92;1.15;;;20.20;61.00;;;;;;5146274;27;20031;-64
2022/09/15 12:06:25;;;;;;;5.72;1.48;;;20.20;59.90;;;;;;5165687;27;20031;-64
2022/09/15 12:09:00;;;;;;;5.07;1.33;;;20.20;60.30;;;;;;5151723;27;20060;-64
2022/09/15 12:11:29;;;;;;;4.10;1.00;;;20.30;59.50;;;;;;5150920;27;20441;-64
2022/09/15 12:13:56;;;;;;;4.20;1.23;;;20.40;59.30;;;;;;5164018;27;20450;-64
2022/09/15 12:16:23;;;;;;;7.03;1.20;;;20.60;58.60;;;;;;5142468;27;20062;-64
2022/09/15 12:18:59;;;;;;;4.63;1.15;;;20.70;58.30;;;;;;5138611;27;20086;-64
2022/09/15 12:21:35;;;;;;;7.93;1.30;;;20.80;58.00;;;;;;5137061;27;20367;-64
2022/09/15 12:24:06;;;;;;;3.80;1.10;;;20.90;57.70;;;;;;5140262;27;20083;-64
2022/09/15 12:26:34;;;;;;;6.75;1.60;;;20.90;57.20;;;;;;5143337;27;20028;-64
2022/09/15 12:29:21;;;;;;;6.00;1.25;;;20.70;57.00;;;;;;5118311;27;20043;-65
2022/09/15 12:31:46;;;;;;;5.80;1.42;;;20.70;57.00;;;;;;5137176;27;20107;-66
2022/09/15 12:34:24;;;;;;;4.60;1.33;;;20.70;57.00;;;;;;5141610;27;20023;-65
2022/09/15 12:37:12;;;;;;;5.95;1.63;;;20.70;56.90;;;;;;5144585;27;20027;-67
2022/09/15 12:39:43;;;;;;;5.82;1.83;;;20.60;57.00;;;;;;5135508;27;20128;-64
2022/09/15 12:42:23;;;;;;;4.25;1.10;;;20.50;57.20;;;;;;5137432;27;20078;-64
2022/09/15 12:44:49;;;;;;;4.07;1.30;;;20.40;57.20;;;;;;5134928;27;20084;-64
2022/09/15 12:47:38;;;;;;;5.00;1.38;;;20.30;57.70;;;;;;5148140;27;20063;-63
2022/09/15 12:50:13;;;;;;;4.55;1.52;;;20.20;57.90;;;;;;5134933;27;20092;-64
2022/09/15 12:52:53;;;;;;;5.60;1.50;;;20.10;58.10;;;;;;5136668;27;20027;-64
2022/09/15 12:55:26;;;;;;;4.35;1.52;;;20.00;58.10;;;;;;5132820;27;20027;-64
2022/09/15 12:58:08;;;;;;;4.78;1.77;;;20.00;57.60;;;;;;5123735;27;20091;-64
2022/09/15 13:00:38;;;;;;;5.00;1.30;;;20.00;56.60;;;;;;5134550;27;20035;-64
2022/09/15 13:03:22;;;;;;;5.50;1.38;;;20.00;56.40;;;;;;5133910;27;20061;-67
2022/09/15 13:05:48;;;;;;;5.78;1.40;;;20.10;55.80;;;;;;5150904;27;20062;-67
2022/09/15 13:08:35;;;;;;;3.90;1.40;;;20.10;55.90;;;;;;5136536;27;20065;-67
2022/09/15 13:11:26;;;;;;;3.83;1.05;;;20.20;54.30;;;;;;5108004;27;20053;-67
2022/09/15 13:14:10;;;;;;;3.45;0.95;;;20.30;53.80;;;;;;5134124;27;20035;-67
2022/09/15 13:16:47;;;;;;;;;;;20.30;53.80;;;;;;5136831;27;20023;-67
2022/09/15 13:19:34;;;;;;;4.75;1.00;;;20.40;54.20;;;;;;5137596;27;20359;-67
2022/09/15 13:22:30;;;;;;;4.13;1.40;;;20.50;53.70;;;;;;5138237;27;20054;-68
2022/09/15 13:25:15;;;;;;;10.45;7.13;;;20.60;53.40;;;;;;5131116;27;20327;-68